• Join FlightAware (Why Join?)
  • Login
  • US Flag 
01:41AM EST


 

Airport Tracker/Info


-or-


 

Live Flight TrackerFlight Track Log ✈ N547XJ ✈ 23-Apr-2013 ✈ KTEB - KVNY

Flight Track Log - Related Links

Times and Time Zones

All times are in EDT time to prevent confusion due to time zone crossing. See the N547XJ flight status page for this flight to view local times or setup timezone preferences in your user account.

Time Position Orientation Groundspeed Altitude Reporting Facility
EDT Latitude Longitude Course Direction KTS MPH feet Rate Location/Type
07:34AM 40.9000 -74.0500 282° West 226 260 2,800  Level New York TRACON
07:35AM 40.9167 -74.1500 282° West 272 313 5,700 1,560 Climbing New York TRACON
07:36AM 40.9333 -74.2333 285° West 275 316 6,000 1,140 Climbing New York TRACON
07:37AM 40.9167 -74.3500 259° West 283 326 8,000 2,160 Climbing New York TRACON
07:38AM 40.9125 -74.3844 261° West 286 329 9,200 2,700 Climbing New York Center
07:39AM 40.8967 -74.4936 259° West 323 372 11,800 3,000 Climbing New York Center
07:40AM 40.8778 -74.6242 259° West 368 423 15,300 2,580 Climbing New York Center
07:41AM 40.8569 -74.7547 258° West 389 448 17,000 1,680 Climbing New York Center
07:42AM 40.8400 -74.8797 260° West 389 448 18,700 2,400 Climbing New York Center
07:43AM 40.8208 -75.0131 259° West 384 442 21,800 2,820 Climbing New York Center
07:44AM 40.8039 -75.1381 260° West 371 427 24,500 2,340 Climbing New York Center
07:45AM 40.7775 -75.2844 257° West 371 427 26,600 1,560 Climbing New York Center
07:46AM 40.7492 -75.4250 255° West 382 440 27,700 1,140 Climbing New York Center
07:47AM 40.7089 -75.5428 246° West 394 453 28,900 1,500 Climbing New York Center
07:48AM 40.6528 -75.6894 243° Southwest 414 476 30,800 1,680 Climbing New York Center
07:49AM 40.6036 -75.8225 244° Southwest 414 476 32,400 1,680 Climbing New York Center
07:50AM 40.5500 -75.9525 242° Southwest 408 470 34,200 1,800 Climbing New York Center
07:51AM 40.5028 -76.0744 243° Southwest 397 457 36,000 1,320 Climbing New York Center
07:52AM 40.4533 -76.1989 242° Southwest 392 451 37,000 720 Climbing New York Center
07:53AM 40.4036 -76.3283 243° Southwest 392 451 37,500 480 Climbing New York Center
07:54AM 40.3536 -76.4581 243° Southwest 397 457 38,000 540 Climbing New York Center
07:55AM 40.3033 -76.5928 244° Southwest 402 463 38,700 600 Climbing New York Center
07:56AM 40.2472 -76.7186 240° Southwest 402 463 39,300 540 Climbing New York Center
07:57AM 40.1922 -76.8525 242° Southwest 407 468 39,800 480 Climbing New York Center
07:58AM 40.1414 -76.9919 245° Southwest 420 483 40,300 480 Climbing New York Center
07:59AM 40.0933 -77.1069 241° Southwest 420 483 40,800 480 Climbing New York Center
08:00AM 40.0406 -77.2378 242° Southwest 420 483 41,300 480 Climbing New York Center
08:02AM 39.9592 -77.5142 249° West 403 464 42,300 480 Climbing Cleveland Center
08:03AM 39.9653 -77.6658 273° West 408 470 42,800 300 Climbing Cleveland Center
08:04AM 39.9689 -77.8172 272° West 414 476 43,000 60 Climbing Cleveland Center
08:05AM 39.9725 -77.9689 272° West 421 484 43,000  Level Cleveland Center
08:06AM 39.9781 -78.1231 273° West 421 484 43,000  Level Cleveland Center
08:07AM 39.9814 -78.2772 272° West 421 484 43,000  Level Cleveland Center
08:08AM 39.9822 -78.4372 270° West 427 491 43,000  Level Cleveland Center
08:09AM 39.9853 -78.5969 271° West 438 504 43,000  Level Cleveland Center
08:10AM 39.9900 -78.7514 272° West 438 504 43,000  Level Cleveland Center
08:11AM 39.9944 -78.9083 272° West 438 504 43,000  Level Cleveland Center
08:12AM 39.9986 -79.0681 272° West 438 504 43,000  Level Cleveland Center
08:13AM 40.0008 -79.2389 271° West 438 504 43,000  Level Cleveland Center
08:14AM 40.0047 -79.3986 272° West 438 504 43,000  Level Cleveland Center
08:15AM 40.0064 -79.5586 271° West 443 510 43,100 120 Climbing Cleveland Center
08:16AM 40.0097 -79.7211 272° West 443 510 43,300 180 Climbing Cleveland Center
08:17AM 40.0128 -79.8811 271° West 443 510 43,500 180 Climbing Cleveland Center
08:18AM 40.0136 -80.0356 270° West 436 502 43,700 180 Climbing Cleveland Center
08:19AM 40.0164 -80.1928 271° West 436 502 43,900 180 Climbing Cleveland Center
08:20AM 40.0147 -80.3528 269° West 436 502 44,100 180 Climbing Cleveland Center
08:21AM 40.0172 -80.5072 271° West 436 502 44,300 180 Climbing Cleveland Center
08:22AM 40.0192 -80.6644 271° West 436 502 44,500 180 Climbing Cleveland Center
08:23AM 40.0189 -80.8189 270° West 436 502 44,700 180 Climbing Cleveland Center
08:24AM 40.0186 -80.9733 270° West 436 502 44,900 120 Climbing Cleveland Center
08:25AM 40.0117 -81.1278 267° West 421 484 45,000  Climbing Indianapolis Center
08:26AM 40.0094 -81.2819 269° West 421 484 45,000  Level Indianapolis Center
08:27AM 40.0053 -81.4622 268° West 421 484 45,000  Level Indianapolis Center
08:28AM 40.0031 -81.6167 269° West 422 486 45,000  Level Indianapolis Center
08:29AM 40.0003 -81.7706 269° West 421 484 45,000  Level Indianapolis Center
08:30AM 39.9961 -81.9175 268° West 422 486 45,000  Level Indianapolis Center
08:31AM 39.9933 -82.0706 269° West 420 483 45,000  Level Indianapolis Center
08:32AM 39.9886 -82.2239 268° West 420 483 45,000  Level Indianapolis Center
08:33AM 39.9850 -82.3775 268° West 420 483 45,000  Level Indianapolis Center
08:34AM 39.9814 -82.5308 268° West 419 482 45,000  Level Indianapolis Center
08:35AM 39.9761 -82.7100 268° West 422 486 45,000  Level Indianapolis Center
08:36AM 39.9711 -82.8617 268° West 418 481 45,000  Level Indianapolis Center
08:37AM 39.9667 -83.0133 268° West 416 479 45,000  Level Indianapolis Center
08:38AM 39.9633 -83.1647 268° West 417 480 45,000  Level Indianapolis Center
08:39AM 39.9592 -83.3144 268° West 413 475 45,000  Level Indianapolis Center
08:40AM 39.9533 -83.4594 267° West 414 476 45,000  Level Indianapolis Center
08:41AM 39.9469 -83.6339 267° West 413 475 45,000  Level Indianapolis Center
08:42AM 39.9419 -83.7803 267° West 406 467 45,000  Level Indianapolis Center
08:43AM 39.9367 -83.9269 267° West 403 464 45,000  Level Indianapolis Center
08:44AM 39.9306 -84.0708 267° West 397 457 45,000  Level Indianapolis Center
08:45AM 39.9256 -84.2144 267° West 393 452 45,000  Level Indianapolis Center
08:46AM 39.9194 -84.3556 267° West 389 448 45,000  Level Indianapolis Center
08:47AM 39.9139 -84.4975 267° West 389 448 45,000  Level Indianapolis Center
08:48AM 39.9058 -84.6386 266° West 389 448 45,000 -60 Level Indianapolis Center
08:49AM 39.8997 -84.7808 267° West 389 448 44,900  Descending Indianapolis Center
08:50AM 39.8908 -84.9475 266° West 392 451 45,000  Climbing Indianapolis Center
08:51AM 39.8839 -85.0903 266° West 392 451 45,000  Level Indianapolis Center
08:52AM 39.8775 -85.2333 267° West 392 451 45,000  Level Indianapolis Center
08:53AM 39.8694 -85.3767 266° West 394 453 45,000  Level Indianapolis Center
08:55AM 39.8628 -85.5208 267° West 395 455 45,000  Level Indianapolis Center
08:56AM 39.8533 -85.6669 265° West 399 459 45,000  Level Indianapolis Center
08:57AM 39.8467 -85.8133 267° West 402 463 45,000  Level Indianapolis Center
08:58AM 39.8389 -85.9522 266° West 402 463 45,000  Level Indianapolis Center
08:59AM 39.8289 -86.1261 266° West 402 463 45,000  Level Indianapolis Center
09:00AM 39.8189 -86.2725 265° West 404 465 45,000  Level Indianapolis Center
09:01AM 39.8142 -86.4192 268° West 406 467 45,000  Level Indianapolis Center
09:02AM 39.8189 -86.5672 272° West 408 470 45,000  Level Indianapolis Center
09:03AM 39.8206 -86.7136 271° West 406 467 45,000  Level Indianapolis Center
09:04AM 39.8247 -86.8603 272° West 406 467 45,000  Level Indianapolis Center
09:05AM 39.8264 -87.0050 271° West 402 463 45,000  Level Indianapolis Center
09:06AM 39.8283 -87.1531 271° West 407 468 45,000  Level Indianapolis Center
09:07AM 39.8314 -87.3272 271° West 402 463 45,000  Level Indianapolis Center
09:08AM 39.8331 -87.4719 271° West 401 461 45,000  Level Indianapolis Center
09:09AM 39.8356 -87.6172 271° West 401 461 45,000  Level Indianapolis Center
09:10AM 39.8367 -87.7625 271° West 401 461 45,000  Level Indianapolis Center
09:11AM 39.8378 -87.9075 271° West 402 463 45,000  Level Indianapolis Center
09:12AM 39.8397 -88.0536 271° West 402 463 45,000  Level Indianapolis Center
09:13AM 39.8403 -88.1986 270° West 401 461 45,000  Level Indianapolis Center
09:14AM 39.8408 -88.3428 270° West 401 461 45,000  Level Indianapolis Center
09:15AM 39.8422 -88.5150 271° West 399 459 45,000  Level Indianapolis Center
09:16AM 39.8419 -88.6600 270° West 399 459 45,000  Level Indianapolis Center
09:17AM 39.8419 -88.8036 270° West 398 458 45,000  Level Indianapolis Center
09:18AM 39.8419 -88.9464 270° West 396 456 45,000  Level Indianapolis Center
09:19AM 39.8425 -89.0894 270° West 396 456 45,000  Level Indianapolis Center
09:20AM 39.8433 -89.2314 270° West 394 453 45,000  Level Indianapolis Center
09:21AM 39.8428 -89.3756 270° West 395 455 45,000  Level Indianapolis Center
09:22AM 39.8400 -89.5167 269° West 396 456 45,000  Level Kansas City Center
09:23AM 39.8392 -89.6603 270° West 396 456 45,000  Level Kansas City Center
09:24AM 39.8278 -89.8053 264° West 401 461 45,000  Level Kansas City Center
09:25AM 39.8133 -89.9769 264° West 398 458 45,000  Level Kansas City Center
09:26AM 39.8003 -90.1189 263° West 396 456 45,000  Level Kansas City Center
09:27AM 39.7875 -90.2614 263° West 396 456 45,000  Level Kansas City Center
09:28AM 39.7747 -90.4044 263° West 396 456 45,000  Level Kansas City Center
09:29AM 39.7614 -90.5467 263° West 397 457 45,000  Level Kansas City Center
09:30AM 39.7464 -90.6939 262° West 392 451 45,000  Level Kansas City Center
09:31AM 39.7331 -90.8350 263° West 394 453 45,000  Level Kansas City Center
09:32AM 39.7200 -90.9753 263° West 394 453 45,000  Level Kansas City Center
09:34AM 39.7053 -91.1153 262° West 394 453 45,000  Level Kansas City Center
09:35AM 39.6914 -91.2550 263° West 394 453 45,000  Level Kansas City Center
09:36AM 39.6753 -91.4169 263° West 392 451 45,000  Level Kansas City Center
09:37AM 39.6611 -91.5556 262° West 390 449 45,000  Level Kansas City Center
09:38AM 39.6469 -91.6939 262° West 390 449 45,000  Level Kansas City Center
09:39AM 39.6311 -91.8325 262° West 390 449 45,000  Level Kansas City Center
09:40AM 39.6175 -91.9681 263° West 384 442 45,000  Level Kansas City Center
09:41AM 39.6039 -92.1017 263° West 379 436 45,000  Level Kansas City Center
09:42AM 39.5889 -92.2381 262° West 381 438 45,000  Level Kansas City Center
09:43AM 39.5736 -92.3753 262° West 384 442 45,000  Level Kansas City Center
09:44AM 39.5544 -92.5364 261° West 380 437 45,000  Level Kansas City Center
09:45AM 39.5403 -92.6717 262° West 379 436 45,000  Level Kansas City Center
09:46AM 39.5239 -92.8092 261° West 383 441 45,000  Level Kansas City Center
09:47AM 39.5081 -92.9425 261° West 381 438 45,000  Level Kansas City Center
09:48AM 39.4931 -93.0744 262° West 376 433 45,000  Level Kansas City Center
09:49AM 39.4778 -93.2069 262° West 374 430 45,000  Level Kansas City Center
09:50AM 39.4617 -93.3383 261° West 371 427 45,000  Level Kansas City Center
09:51AM 39.4464 -93.4714 262° West 374 430 45,000  Level Kansas City Center
09:52AM 39.4272 -93.6283 261° West 371 427 45,000  Level Kansas City Center
09:53AM 39.4100 -93.7619 261° West 371 427 45,000  Level Kansas City Center
09:54AM 39.3939 -93.8889 261° West 376 433 45,000  Level Kansas City Center
09:55AM 39.3753 -94.0386 261° West 378 435 45,000  Level Kansas City Center
09:56AM 39.3594 -94.1667 261° West 378 435 45,000  Level Kansas City Center
09:57AM 39.3431 -94.2928 261° West 374 430 45,000  Level Kansas City Center
09:58AM 39.3242 -94.4411 261° West 375 432 45,000  Level Kansas City Center
09:59AM 39.3083 -94.5681 261° West 374 430 45,000  Level Kansas City Center
10:00AM 39.2875 -94.7153 260° West 373 429 45,000  Level Kansas City Center
10:01AM 39.2725 -94.8422 261° West 373 429 45,000  Level Kansas City Center
10:02AM 39.2586 -94.9694 262° West 374 430 45,000  Level Kansas City Center
10:03AM 39.2406 -95.1289 262° West 378 435 45,000  Level Kansas City Center
10:04AM 39.2247 -95.2628 261° West 379 436 45,000  Level Kansas City Center
10:05AM 39.2094 -95.3969 262° West 378 435 45,000  Level Kansas City Center
10:06AM 39.1933 -95.5356 262° West 377 434 45,000  Level Kansas City Center
10:07AM 39.1781 -95.6622 261° West 375 432 45,000  Level Kansas City Center
10:08AM 39.1631 -95.7886 261° West 373 429 45,000  Level Kansas City Center
10:09AM 39.1444 -95.9369 261° West 370 426 45,000  Level Kansas City Center
10:10AM 39.1281 -96.0647 261° West 376 433 45,000  Level Kansas City Center
10:11AM 39.1094 -96.2131 261° West 377 434 45,000  Level Kansas City Center
10:12AM 39.0936 -96.3394 261° West 375 432 45,000  Level Kansas City Center
10:13AM 39.0783 -96.4661 261° West 374 430 45,000  Level Kansas City Center
10:15AM 39.0572 -96.6106 259° West 369 425 45,000  Level Kansas City Center
10:16AM 39.0414 -96.7386 261° West 375 432 45,000  Level Kansas City Center
10:17AM 39.0222 -96.8867 261° West 376 433 45,000  Level Kansas City Center
10:18AM 39.0056 -97.0139 260° West 377 434 45,000  Level Kansas City Center
10:19AM 38.9861 -97.1594 260° West 372 428 45,000  Level Kansas City Center
10:20AM 38.9733 -97.2739 262° West 375 432 45,000  Level Kansas City Center
10:21AM 38.9550 -97.4058 260° West 375 432 45,000  Level Kansas City Center
10:22AM 38.9350 -97.5592 261° West 372 428 45,000  Level Kansas City Center
10:23AM 38.9178 -97.6842 260° West 372 428 45,000  Level Kansas City Center
10:24AM 38.8992 -97.8358 261° West 378 435 45,000 -240 Level Kansas City Center
10:25AM 38.8842 -97.9597 261° West 381 438 44,600 -540 Descending Kansas City Center
10:26AM 38.8678 -98.0947 261° West 385 443 44,000 -720 Descending Kansas City Center
10:27AM 38.8500 -98.2306 261° West 388 447 43,100 -540 Descending Kansas City Center
10:28AM 38.8328 -98.3664 261° West 388 447 43,000 -60 Descending Kansas City Center
10:29AM 38.8161 -98.5031 261° West 389 448 43,000  Level Kansas City Center
10:30AM 38.7950 -98.6656 261° West 387 445 43,000  Level Kansas City Center
10:31AM 38.7769 -98.8011 260° West 386 444 43,000  Level Kansas City Center
10:32AM 38.7592 -98.9361 260° West 386 444 43,000  Level Kansas City Center
10:33AM 38.7411 -99.0711 260° West 386 444 43,000  Level Kansas City Center
10:34AM 38.7225 -99.2072 260° West 387 445 43,000  Level Kansas City Center
10:35AM 38.7033 -99.3444 260° West 390 449 43,000  Level Kansas City Center
10:36AM 38.6892 -99.4514 260° West 386 444 43,000  Level Denver Center
10:37AM 38.6714 -99.5828 260° West 390 449 43,000  Level Denver Center
10:38AM 38.6503 -99.7328 260° West 387 445 43,000  Level Denver Center
10:39AM 38.6319 -99.8619 260° West 386 444 43,000  Level Denver Center
10:40AM 38.6108 -100.0094 260° West 380 437 43,000  Level Denver Center
10:41AM 38.5928 -100.1383 260° West 383 441 43,000  Level Denver Center
10:42AM 38.5708 -100.2881 259° West 385 443 43,000  Level Denver Center
10:43AM 38.5519 -100.4142 259° West 381 438 43,000  Level Denver Center
10:44AM 38.5306 -100.5631 260° West 382 440 43,000  Level Denver Center
10:45AM 38.5117 -100.6908 259° West 383 441 43,000  Level Denver Center
10:46AM 38.4900 -100.8414 260° West 388 447 43,000  Level Denver Center
10:47AM 38.4706 -100.9669 259° West 380 437 43,000  Level Denver Center
10:48AM 38.4483 -101.1144 259° West 380 437 43,000  Level Denver Center
10:49AM 38.4281 -101.2431 259° West 388 447 43,000  Level Denver Center
10:50AM 38.4053 -101.3908 259° West 383 441 43,000  Level Denver Center
10:51AM 38.3861 -101.5172 259° West 382 440 43,000  Level Denver Center
10:52AM 38.3631 -101.6658 259° West 384 442 43,000  Level Denver Center
10:53AM 38.3428 -101.7925 259° West 382 440 43,000  Level Denver Center
10:54AM 38.3225 -101.9203 259° West 385 443 43,000  Level Denver Center
10:55AM 38.2986 -102.0689 258° West 386 444 43,000  Level Denver Center
10:56AM 38.2792 -102.1975 259° West 388 447 43,000  Level Denver Center
10:57AM 38.2528 -102.3472 257° West 389 448 43,000  Level Denver Center
10:58AM 38.2317 -102.4761 258° West 389 448 43,000  Level Denver Center
10:59AM 38.2075 -102.6250 258° West 388 447 43,000  Level Denver Center
11:00AM 38.1814 -102.7514 255° West 388 447 43,000  Level Denver Center
11:01AM 38.1428 -102.8961 251° West 388 447 43,000  Level Denver Center
11:03AM 38.1125 -103.0192 253° West 385 443 43,000  Level Denver Center
11:04AM 38.0761 -103.1597 252° West 391 450 43,000  Level Denver Center
11:05AM 38.0431 -103.2833 251° West 390 449 43,000  Level Denver Center
11:06AM 38.0053 -103.4300 252° West 391 450 43,000  Level Denver Center
11:07AM 37.9725 -103.5544 252° West 392 451 43,000  Level Denver Center
11:08AM 37.9336 -103.6997 251° West 391 450 43,000  Level Denver Center
11:09AM 37.9008 -103.8253 252° West 393 452 43,000  Level Denver Center
11:10AM 37.8617 -103.9708 251° West 393 452 43,000  Level Denver Center
11:11AM 37.8275 -104.0964 251° West 397 457 43,000  Level Denver Center
11:12AM 37.7872 -104.2411 251° West 395 455 43,000  Level Denver Center
11:13AM 37.7542 -104.3672 252° West 398 458 43,000  Level Denver Center
11:14AM 37.7144 -104.5119 251° West 391 450 43,000  Level Denver Center
11:15AM 37.6808 -104.6350 251° West 390 449 43,000  Level Denver Center
11:16AM 37.6417 -104.7783 251° West 387 445 43,000  Level Denver Center
11:17AM 37.6067 -104.9008 250° West 388 447 43,000  Level Denver Center
11:18AM 37.5669 -105.0453 251° West 390 449 43,000  Level Denver Center
11:19AM 37.5297 -105.1806 251° West 386 444 43,000  Level Denver Center
11:20AM 37.4944 -105.3000 250° West 382 440 43,000  Level Denver Center
11:21AM 37.4550 -105.4408 251° West 380 437 43,000  Level Denver Center
11:22AM 37.4214 -105.5603 251° West 378 435 43,000  Level Denver Center
11:23AM 37.3822 -105.6992 250° West 378 435 43,000  Level Denver Center
11:24AM 37.3478 -105.8175 250° West 377 434 43,000  Level Denver Center
11:25AM 37.3114 -105.9589 252° West 380 437 43,000  Level Denver Center
11:26AM 37.2806 -106.0794 252° West 380 437 43,000  Level Denver Center
11:27AM 37.2439 -106.2203 252° West 380 437 43,000  Level Denver Center
11:28AM 37.2128 -106.3422 252° West 382 440 43,000  Level Denver Center
11:29AM 37.1825 -106.4653 253° West 385 443 43,000  Level Denver Center
11:30AM 37.1453 -106.6081 252° West 387 445 43,000  Level Denver Center
11:31AM 37.1144 -106.7303 252° West 386 444 43,000  Level Denver Center
11:33AM 37.0767 -106.8703 251° West 382 440 43,000  Level Denver Center
11:34AM 37.0456 -106.9914 252° West 382 440 43,000  Level Denver Center
11:35AM 37.0092 -107.1322 252° West 381 438 43,000  Level Denver Center
11:36AM 36.9761 -107.2542 251° West 387 445 43,000  Level Denver Center
11:37AM 36.9386 -107.3969 252° West 388 447 43,000  Level Denver Center
11:38AM 36.9053 -107.5161 251° West 383 441 43,000  Level Denver Center
11:39AM 36.8672 -107.6581 252° West 386 444 43,000  Level Denver Center
11:40AM 36.8344 -107.7794 251° West 386 444 43,000  Level Denver Center
11:41AM 36.7958 -107.9211 251° West 386 444 43,000  Level Denver Center
11:42AM 36.7628 -108.0442 251° West 389 448 43,000  Level Denver Center
11:43AM 36.7306 -108.1897 255° West 389 448 43,000  Level Denver Center
11:44AM 36.7086 -108.3172 258° West 393 452 43,000  Level Denver Center
11:45AM 36.6806 -108.4639 257° West 391 450 43,000  Level Denver Center
11:46AM 36.6575 -108.5908 257° West 393 452 43,000  Level Denver Center
11:47AM 36.6292 -108.7389 257° West 396 456 43,000  Level Denver Center
11:48AM 36.6053 -108.8656 257° West 395 455 43,000  Level Denver Center
11:49AM 36.5761 -109.0128 256° West 395 455 43,000  Level Denver Center
11:50AM 36.5517 -109.1419 257° West 401 461 43,000  Level Denver Center
11:51AM 36.5228 -109.2903 256° West 399 459 43,000  Level Denver Center
11:52AM 36.4986 -109.4178 257° West 398 458 43,000  Level Denver Center
11:53AM 36.4692 -109.5664 256° West 399 459 43,000  Level Denver Center
11:54AM 36.4439 -109.6933 256° West 397 457 43,000  Level Denver Center
11:55AM 36.4150 -109.8397 256° West 393 452 43,000  Level Denver Center
11:56AM 36.3908 -109.9647 257° West 391 450 43,000  Level Denver Center
11:57AM 36.3608 -110.1136 256° West 396 456 43,000  Level Denver Center
11:58AM 36.3342 -110.2408 255° West 399 459 43,000  Level Denver Center
11:59AM 36.3083 -110.3733 256° West 397 457 43,000  Level Denver Center
12:00PM 36.2811 -110.5061 256° West 397 457 43,000  Level Denver Center
12:01PM 36.2531 -110.6381 255° West 396 456 43,000  Level Denver Center
12:03PM 36.2186 -110.7981 255° West 399 459 43,000  Level Denver Center
12:04PM 36.1917 -110.9303 256° West 398 458 43,000  Level Denver Center
12:05PM 36.1633 -111.0639 255° West 401 461 43,000  Level Denver Center
12:06PM 36.1350 -111.1978 255° West 403 464 43,000  Level Denver Center
12:07PM 36.1067 -111.3328 255° West 405 466 43,000  Level Denver Center
12:08PM 36.0792 -111.4681 256° West 406 467 43,000  Level Denver Center
12:09PM 36.0447 -111.6319 255° West 410 472 43,000  Level Denver Center
12:10PM 36.0161 -111.7675 255° West 409 471 43,000  Level Denver Center
12:11PM 35.9861 -111.9025 255° West 408 470 43,000  Level Denver Center
12:11PM 35.9744 -111.9564 255° West 409 471 43,000  Level Los Angeles Center
12:12PM 35.9450 -112.0953 255° West 409 471 43,000  Level Los Angeles Center
12:13PM 35.9169 -112.2250 255° West 407 468 43,000  Level Los Angeles Center
12:14PM 35.8881 -112.3597 255° West 409 471 43,000  Level Los Angeles Center
12:15PM 35.8531 -112.5208 255° West 408 470 43,000  Level Los Angeles Center
12:16PM 35.8239 -112.6558 255° West 410 472 43,000  Level Los Angeles Center
12:17PM 35.8000 -112.7639 255° West 412 474 43,000  Level Los Angeles Center
12:18PM 35.7647 -112.9236 255° West 410 472 43,000  Level Los Angeles Center
12:19PM 35.7286 -113.0825 254° West 408 470 43,000  Level Los Angeles Center
12:20PM 35.6986 -113.2156 255° West 409 471 43,000  Level Los Angeles Center
12:22PM 35.6686 -113.3483 254° West 409 471 43,000  Level Los Angeles Center
12:23PM 35.6386 -113.4828 255° West 411 473 43,000  Level Los Angeles Center
12:24PM 35.6056 -113.6175 253° West 413 475 43,000  Level Los Angeles Center
12:25PM 35.5617 -113.7756 251° West 410 472 43,000 -60 Level Los Angeles Center
12:26PM 35.5250 -113.9089 251° West 414 476 42,900 -780 Descending Los Angeles Center
12:27PM 35.4903 -114.0397 252° West 407 468 41,500 -1,620 Descending Los Angeles Center
12:28PM 35.4544 -114.1678 251° West 401 461 39,600 -1,920 Descending Los Angeles Center
12:29PM 35.4153 -114.3089 251° West 385 443 37,600 -1,860 Descending Los Angeles Center
12:30PM 35.3828 -114.4286 252° West 373 429 35,800 -1,740 Descending Los Angeles Center
12:31PM 35.3469 -114.5508 250° West 377 434 34,100 -900 Descending Los Angeles Center
12:32PM 35.3119 -114.6806 252° West 394 453 34,000 -60 Descending Los Angeles Center
12:33PM 35.2736 -114.8150 251° West 413 475 34,000  Level Los Angeles Center
12:34PM 35.2361 -114.9508 251° West 421 484 34,000  Level Los Angeles Center
12:35PM 35.1892 -115.1153 251° West 424 488 34,000  Level Los Angeles Center
12:36PM 35.1517 -115.2503 251° West 421 484 34,000  Level Los Angeles Center
12:37PM 35.1178 -115.3675 251° West 418 481 34,000  Level Los Angeles Center
12:38PM 35.0722 -115.5286 251° West 419 482 34,000 -60 Level Los Angeles Center
12:39PM 35.0322 -115.6636 250° West 421 484 33,900 -1,080 Descending Los Angeles Center
12:40PM 34.9936 -115.7997 251° West 424 488 31,800 -2,160 Descending Los Angeles Center
12:41PM 34.9517 -115.9414 250° West 437 503 29,500 -2,280 Descending Los Angeles Center
12:42PM 34.9106 -116.0814 250° West 441 507 27,200 -2,280 Descending Los Angeles Center
12:43PM 34.8694 -116.2172 250° West 433 498 24,900 -1,800 Descending Los Angeles Center
12:44PM 34.8317 -116.3475 251° West 417 480 23,500 -1,200 Descending Los Angeles Center
12:45PM 34.7928 -116.4964 252° West 390 449 22,500 -900 Descending Los Angeles Center
12:46PM 34.7814 -116.6286 264° West 393 452 21,700 -780 Descending Los Angeles Center
12:47PM 34.7689 -116.7586 263° West 389 448 20,900 -780 Descending Los Angeles Center
12:48PM 34.7556 -116.8919 263° West 395 455 20,100 -840 Descending Los Angeles Center
12:49PM 34.7411 -117.0225 262° West 391 450 19,200 -840 Descending Los Angeles Center
12:50PM 34.7286 -117.1494 263° West 380 437 18,400 -840 Descending Los Angeles Center
12:51PM 34.7128 -117.2961 263° West 366 421 17,500 -780 Descending Los Angeles Center
12:53PM 34.6994 -117.4186 262° West 364 419 16,800 -720 Descending Los Angeles Center
12:54PM 34.6864 -117.5419 263° West 365 420 16,000 -1,020 Descending Los Angeles Center
12:55PM 34.6694 -117.6678 261° West 374 430 14,800 -1,260 Descending Los Angeles Center
12:56PM 34.6500 -117.7950 260° West 381 438 13,500 -1,260 Descending Los Angeles Center
12:57PM 34.6319 -117.9233 260° West 383 441 12,200 -1,260 Descending Los Angeles Center
12:58PM 34.6164 -118.0336 260° West 330 380 11,000 -1,260 Descending Los Angeles Center
12:59PM 34.5967 -118.1592 259° West 310 357 9,600 -1,140 Descending Los Angeles Center
01:00PM 34.5836 -118.2467 260° West 305 351 8,700 -780 Descending Los Angeles Center
01:01PM 34.5650 -118.3619 259° West 292 336 8,100 -360 Descending Los Angeles Center
01:02PM 34.5444 -118.4522 255° West 280 322 8,000 -780 Descending Los Angeles Center
01:03PM 34.4964 -118.5092 224° Southwest 263 303 6,500 -1,020 Descending Los Angeles Center
01:04PM 34.4253 -118.5150 184° South 249 287 5,900 -840 Descending Los Angeles Center
01:05PM 34.3708 -118.5069 173° South 199 229 4,800 -1,320 Descending Los Angeles Center
01:05PM 34.3333 -118.5000 171° South 193 222 3,900 -1,500 Descending Southern California TRACON
01:06PM 34.2833 -118.5000 180° South 180 207 2,600 -1,200 Descending Southern California TRACON
01:07PM 34.2500 -118.5000 180° South 138 159 1,700 -1,020 Descending Southern California TRACON
01:10PM 34.2098 -118.4900 180° South  Level Estimated
01:17PM 34.2098 -118.4900 180° South  Level Estimated